Time;durP1;ratioP1;P1;durP2;ratioP2;P2;SDS_P1;SDS_P2;PMS_P1;PMS_P2;Temp;Humidity;BMP_temperature;BMP_pressure;BME280_temperature;BME280_humidity;BME280_pressure;Samples;Min_cycle;Max_cycle;Signal;HPM_P1;HPM_P2
2022/08/08 00:01:43;;;;;;;6.85;5.80;;;13.30;99.90;;;;;;4937721;29;19918;-83
2022/08/08 00:04:23;;;;;;;9.40;6.38;;;13.30;99.90;;;;;;4950950;28;20082;-82
2022/08/08 00:06:56;;;;;;;9.40;6.18;;;13.30;99.90;;;;;;4940131;28;20046;-83
2022/08/08 00:09:32;;;;;;;9.38;6.32;;;13.30;99.90;;;;;;4940909;28;20061;-83
2022/08/08 00:12:08;;;;;;;9.52;6.10;;;13.20;99.90;;;;;;5055499;28;20045;-83
2022/08/08 00:14:56;;;;;;;8.48;6.70;;;13.20;99.90;;;;;;5039325;28;20103;-83
2022/08/08 00:17:39;;;;;;;7.20;5.90;;;13.20;99.90;;;;;;5055907;28;20044;-82
2022/08/08 00:20:07;;;;;;;13.13;6.55;;;13.20;99.90;;;;;;5039341;28;20048;-83
2022/08/08 00:22:41;;;;;;;10.65;6.70;;;13.10;99.90;;;;;;5055439;28;20141;-83
2022/08/08 00:25:12;;;;;;;9.23;6.10;;;13.10;99.90;;;;;;5038874;28;20053;-84
2022/08/08 00:27:39;;;;;;;7.63;5.60;;;13.10;99.90;;;;;;5073409;28;20048;-83
2022/08/08 00:30:08;;;;;;;8.77;5.68;;;13.10;99.90;;;;;;5038935;28;20500;-84
2022/08/08 00:32:49;;;;;;;8.85;5.80;;;13.10;99.90;;;;;;5038707;28;20087;-83
2022/08/08 00:35:21;;;;;;;10.60;6.15;;;13.00;99.90;;;;;;5071902;28;20143;-83
2022/08/08 00:38:02;;;;;;;13.13;5.47;;;13.00;99.90;;;;;;5055519;28;20056;-83
2022/08/08 00:40:27;;;;;;;7.18;5.45;;;13.00;99.90;;;;;;5055542;28;20135;-83
2022/08/08 00:43:05;;;;;;;7.03;5.30;;;13.10;99.90;;;;;;5072961;28;20206;-83
2022/08/08 00:45:36;;;;;;;6.43;5.18;;;13.00;99.90;;;;;;5038640;28;20045;-83
2022/08/08 00:48:28;;;;;;;12.07;5.60;;;13.00;99.90;;;;;;5055432;28;20197;-83
2022/08/08 00:51:25;;;;;;;10.52;6.03;;;12.90;99.90;;;;;;5055377;28;20186;-84
2022/08/08 00:54:25;;;;;;;6.40;5.15;;;12.90;99.90;;;;;;4974973;28;20053;-84
2022/08/08 00:57:08;;;;;;;7.82;5.45;;;12.80;99.90;;;;;;4974914;28;20050;-84
2022/08/08 01:00:11;;;;;;;8.77;5.30;;;12.80;99.90;;;;;;4975398;28;20054;-83
2022/08/08 01:02:53;;;;;;;10.25;5.60;;;12.70;99.90;;;;;;4959072;28;20430;-83
2022/08/08 01:05:42;;;;;;;14.00;5.95;;;12.80;99.90;;;;;;4959150;28;20065;-83
2022/08/08 01:08:22;;;;;;;9.73;5.47;;;12.70;99.90;;;;;;4959099;28;20157;-83
2022/08/08 01:11:07;;;;;;;9.37;5.80;;;12.70;99.90;;;;;;4958801;28;20086;-84
2022/08/08 01:14:01;;;;;;;10.20;6.32;;;12.70;99.90;;;;;;4975144;28;20357;-83
2022/08/08 01:16:45;;;;;;;8.25;5.85;;;12.70;99.90;;;;;;4975060;28;20141;-83
2022/08/08 01:19:31;;;;;;;8.30;5.70;;;12.70;99.90;;;;;;4959031;28;20452;-84
2022/08/08 01:22:12;;;;;;;9.18;6.10;;;12.70;99.90;;;;;;4991102;28;20055;-83
2022/08/08 01:25:05;;;;;;;9.93;6.53;;;12.80;99.90;;;;;;4974024;28;20054;-83
2022/08/08 01:28:03;;;;;;;9.38;6.43;;;12.70;99.90;;;;;;4974977;28;20045;-84
2022/08/08 01:30:47;;;;;;;10.48;6.25;;;12.60;99.90;;;;;;4997219;28;20447;-83
2022/08/08 01:33:28;;;;;;;8.50;6.05;;;12.50;99.90;;;;;;5018356;28;20040;-83
2022/08/08 01:36:30;;;;;;;7.00;6.30;;;12.40;99.90;;;;;;5018230;28;20139;-83
2022/08/08 01:39:22;;;;;;;10.68;6.13;;;12.40;99.90;;;;;;5018274;28;20051;-83
2022/08/08 01:42:31;;;;;;;9.57;5.90;;;12.30;99.90;;;;;;5034752;28;20053;-83
2022/08/08 01:45:20;;;;;;;8.82;5.90;;;12.30;99.90;;;;;;5034798;28;20053;-83
2022/08/08 01:48:23;;;;;;;6.65;5.65;;;12.30;99.90;;;;;;5034621;28;20143;-83
2022/08/08 01:51:20;;;;;;;9.02;6.10;;;12.30;99.90;;;;;;5034318;28;20132;-85
2022/08/08 01:54:12;;;;;;;7.53;6.13;;;12.30;99.90;;;;;;5018099;28;20203;-83
2022/08/08 01:57:17;;;;;;;11.10;7.05;;;12.20;99.90;;;;;;4970286;28;20450;-83
2022/08/08 01:59:58;;;;;;;14.88;7.22;;;12.10;99.90;;;;;;4974666;28;20495;-82
2022/08/08 02:02:56;;;;;;;10.88;7.07;;;12.10;99.90;;;;;;4990795;28;20471;-83
2022/08/08 02:05:46;;;;;;;10.43;7.32;;;12.20;99.90;;;;;;4974485;28;20090;-83
2022/08/08 02:08:33;;;;;;;13.90;7.50;;;12.00;99.90;;;;;;4974529;28;20058;-83
2022/08/08 02:11:20;;;;;;;12.68;6.55;;;12.00;99.90;;;;;;4974514;28;20128;-82
2022/08/08 02:14:13;;;;;;;8.80;6.53;;;12.00;99.90;;;;;;4974408;28;20515;-83
2022/08/08 02:17:10;;;;;;;10.32;6.75;;;12.00;99.90;;;;;;4974463;28;20057;-83
2022/08/08 02:19:52;;;;;;;8.82;6.43;;;12.00;99.90;;;;;;4974710;28;20054;-83
2022/08/08 02:22:31;;;;;;;18.60;7.30;;;12.00;99.90;;;;;;4990319;28;20110;-83
2022/08/08 02:25:28;;;;;;;9.23;6.53;;;11.90;99.90;;;;;;4974344;28;20046;-83
2022/08/08 02:27:58;;;;;;;8.07;6.70;;;11.90;99.90;;;;;;4974364;28;20054;-83
2022/08/08 02:31:05;;;;;;;10.18;6.55;;;11.90;99.90;;;;;;4974277;28;20574;-83
2022/08/08 02:33:55;;;;;;;9.43;7.07;;;11.90;99.90;;;;;;4908132;29;20056;-83
2022/08/08 02:36:59;;;;;;;9.85;6.68;;;11.80;99.90;;;;;;4934281;29;20051;-82
2022/08/08 02:40:01;;;;;;;10.43;6.82;;;11.80;99.90;;;;;;4920271;29;20056;-82
2022/08/08 02:42:45;;;;;;;7.82;6.28;;;11.90;99.90;;;;;;4920355;29;20058;-83
2022/08/08 02:45:32;;;;;;;8.38;6.53;;;11.80;99.90;;;;;;4936150;29;20067;-91
2022/08/08 02:48:38;;;;;;;9.73;6.30;;;11.80;99.90;;;;;;4919954;29;20059;-83
2022/08/08 02:51:28;;;;;;;8.02;6.50;;;11.70;99.90;;;;;;4920187;29;20054;-83
2022/08/08 02:54:15;;;;;;;10.57;6.47;;;11.70;99.90;;;;;;4919979;29;20047;-83
2022/08/08 02:56:55;;;;;;;8.68;5.95;;;11.70;99.90;;;;;;4950587;28;20055;-83
2022/08/08 02:59:23;;;;;;;9.23;6.55;;;11.70;99.90;;;;;;4941808;28;20055;-83
2022/08/08 03:02:13;;;;;;;8.68;6.10;;;11.70;99.90;;;;;;4958085;28;20196;-83
2022/08/08 03:04:58;;;;;;;9.38;6.78;;;11.70;99.90;;;;;;4942175;28;20057;-83
2022/08/08 03:07:23;;;;;;;8.15;6.03;;;11.70;99.90;;;;;;4957968;28;20053;-83
2022/08/08 03:09:52;;;;;;;7.53;6.68;;;11.60;99.90;;;;;;4983998;28;20045;-83
2022/08/08 03:12:17;;;;;;;9.73;7.28;;;11.60;99.90;;;;;;5037000;28;20045;-83
2022/08/08 03:14:43;;;;;;;8.38;6.85;;;11.70;99.90;;;;;;5020377;28;20460;-83
2022/08/08 03:17:20;;;;;;;8.48;6.40;;;11.80;99.90;;;;;;5037339;28;20045;-83
2022/08/08 03:20:04;;;;;;;7.50;5.78;;;11.60;99.90;;;;;;5020643;28;20454;-83
2022/08/08 03:22:30;;;;;;;9.32;7.00;;;11.60;99.90;;;;;;5036926;28;20107;-83
2022/08/08 03:24:56;;;;;;;7.70;6.35;;;11.70;99.90;;;;;;5020582;28;20057;-83
2022/08/08 03:27:40;;;;;;;8.48;5.88;;;11.70;99.90;;;;;;5036697;28;20131;-83
2022/08/08 03:30:11;;;;;;;10.60;6.50;;;11.70;99.90;;;;;;5037026;28;20194;-83
2022/08/08 03:35:23;;;;;;;7.60;5.70;;;11.70;99.90;;;;;;5036769;28;20048;-83
2022/08/08 03:37:49;;;;;;;6.85;5.50;;;11.60;99.90;;;;;;5019842;28;20383;-84
2022/08/08 03:40:21;;;;;;;11.23;6.22;;;11.60;99.90;;;;;;5036937;28;20068;-84
2022/08/08 03:42:48;;;;;;;8.90;6.10;;;11.50;99.90;;;;;;5020297;28;20045;-83
2022/08/08 03:45:16;;;;;;;7.38;5.80;;;11.40;99.90;;;;;;5036532;28;20045;-83
2022/08/08 03:47:42;;;;;;;9.93;6.40;;;11.40;99.90;;;;;;5035686;28;20063;-83
2022/08/08 03:50:16;;;;;;;9.13;5.90;;;11.40;99.90;;;;;;5036246;28;20049;-83
2022/08/08 03:52:42;;;;;;;10.10;5.97;;;11.40;99.90;;;;;;5035694;28;20417;-84
2022/08/08 03:55:13;;;;;;;7.10;5.95;;;11.40;99.90;;;;;;5056968;28;20061;-83
2022/08/08 03:57:45;;;;;;;8.32;5.80;;;11.40;99.90;;;;;;5055988;28;20065;-83
2022/08/08 04:00:14;;;;;;;7.28;5.90;;;11.30;99.90;;;;;;5056195;28;20071;-87
2022/08/08 04:02:39;;;;;;;8.80;5.88;;;11.30;99.90;;;;;;5073723;28;20044;-83
2022/08/08 04:05:06;;;;;;;7.95;6.00;;;11.50;99.90;;;;;;5039479;28;20106;-83
2022/08/08 04:07:36;;;;;;;7.68;6.00;;;11.30;99.90;;;;;;5056274;28;20146;-83
2022/08/08 04:10:02;;;;;;;7.55;6.13;;;11.30;99.90;;;;;;5039533;28;20427;-85
2022/08/08 04:12:28;;;;;;;8.25;5.60;;;11.30;99.90;;;;;;5055737;28;20041;-84
2022/08/08 04:14:55;;;;;;;8.18;5.80;;;11.40;99.90;;;;;;5055928;28;20053;-83
2022/08/08 04:17:20;;;;;;;7.95;5.95;;;11.30;99.90;;;;;;5073575;28;20447;-85
2022/08/08 04:19:46;;;;;;;8.20;6.22;;;11.30;99.90;;;;;;5055601;28;20040;-84
2022/08/08 04:22:11;;;;;;;7.82;5.90;;;11.40;99.90;;;;;;5055969;28;20094;-83
2022/08/08 04:24:37;;;;;;;6.45;5.45;;;11.40;99.90;;;;;;5055841;28;20102;-82
2022/08/08 04:27:03;;;;;;;8.65;6.10;;;11.40;99.90;;;;;;5055763;28;20191;-83
2022/08/08 04:29:29;;;;;;;8.15;5.90;;;11.40;99.90;;;;;;5072314;28;20044;-83
2022/08/08 04:31:55;;;;;;;8.05;5.85;;;11.40;99.90;;;;;;5038785;28;20052;-83
2022/08/08 04:34:20;;;;;;;6.97;6.00;;;11.40;99.90;;;;;;5055286;28;20051;-82
2022/08/08 04:36:46;;;;;;;7.40;5.88;;;11.40;99.90;;;;;;5055304;28;20059;-83
2022/08/08 04:39:11;;;;;;;7.97;5.80;;;11.50;99.90;;;;;;5055443;28;20110;-83
2022/08/08 04:41:37;;;;;;;9.07;6.30;;;11.40;99.90;;;;;;5038747;28;20059;-90
2022/08/08 04:44:03;;;;;;;7.03;5.55;;;11.40;99.90;;;;;;5062882;28;20048;-83
2022/08/08 04:46:28;;;;;;;7.47;5.85;;;11.40;99.90;;;;;;5071720;28;20432;-83
2022/08/08 04:48:54;;;;;;;9.07;6.00;;;11.50;99.90;;;;;;5055159;28;20576;-83
2022/08/08 04:51:20;;;;;;;7.25;5.70;;;11.50;99.90;;;;;;5072642;28;20049;-83
2022/08/08 04:53:45;;;;;;;10.15;6.20;;;11.50;99.90;;;;;;5055249;28;20117;-84
2022/08/08 04:56:11;;;;;;;8.18;5.70;;;11.60;99.90;;;;;;5054911;28;20139;-84
2022/08/08 04:58:37;;;;;;;8.77;5.78;;;11.60;99.90;;;;;;5088457;28;20052;-84
2022/08/08 05:01:03;;;;;;;8.80;5.30;;;11.70;99.90;;;;;;5088273;28;20084;-83
2022/08/08 05:03:29;;;;;;;10.70;5.70;;;11.70;99.90;;;;;;5055057;28;20088;-83
2022/08/08 05:05:54;;;;;;;8.02;6.40;;;11.70;99.90;;;;;;5055064;28;20067;-83
2022/08/08 05:08:20;;;;;;;7.28;5.60;;;11.80;99.90;;;;;;5054748;28;20052;-84
2022/08/08 05:10:46;;;;;;;7.63;5.97;;;11.80;99.90;;;;;;5072405;28;20048;-83
2022/08/08 05:13:11;;;;;;;8.10;6.60;;;11.90;99.90;;;;;;5054974;28;20135;-83
2022/08/08 05:15:37;;;;;;;9.18;6.25;;;12.00;99.90;;;;;;5054973;28;20087;-83
2022/08/08 05:18:02;;;;;;;8.18;5.82;;;12.10;99.90;;;;;;5054875;28;20055;-83
2022/08/08 05:20:28;;;;;;;9.68;6.22;;;12.20;99.90;;;;;;5054777;28;20159;-83
2022/08/08 05:22:54;;;;;;;8.70;5.72;;;12.30;99.90;;;;;;5072206;28;20044;-82
2022/08/08 05:25:19;;;;;;;11.05;6.47;;;12.30;99.90;;;;;;5072533;28;20053;-83
2022/08/08 05:27:45;;;;;;;8.32;5.45;;;12.40;99.90;;;;;;5072423;28;20056;-83
2022/08/08 05:30:11;;;;;;;9.85;5.50;;;12.50;99.90;;;;;;5054589;28;20056;-83
2022/08/08 05:32:38;;;;;;;7.30;4.50;;;12.60;99.90;;;;;;5054401;28;20052;-82
2022/08/08 05:35:04;;;;;;;7.75;5.60;;;12.70;99.90;;;;;;5037628;28;20103;-83
2022/08/08 05:37:31;;;;;;;8.50;5.57;;;12.80;99.90;;;;;;5054403;28;20048;-83
2022/08/08 05:40:03;;;;;;;7.88;4.90;;;12.90;99.90;;;;;;5088282;28;20139;-83
2022/08/08 05:42:40;;;;;;;8.02;5.00;;;13.00;99.90;;;;;;5072422;28;20048;-83
2022/08/08 05:45:07;;;;;;;10.90;4.75;;;13.10;99.90;;;;;;5054647;28;20056;-85
2022/08/08 05:47:35;;;;;;;10.88;5.15;;;13.20;99.90;;;;;;5054533;28;20067;-83
2022/08/08 05:50:05;;;;;;;8.15;3.70;;;13.30;99.90;;;;;;5054399;28;20143;-83
2022/08/08 05:52:36;;;;;;;4.85;2.92;;;13.40;99.90;;;;;;5087866;28;20063;-85
2022/08/08 05:55:03;;;;;;;8.23;4.10;;;13.50;99.90;;;;;;5070953;28;20051;-83
2022/08/08 05:57:34;;;;;;;8.27;3.63;;;13.60;99.90;;;;;;5054125;28;20087;-83
2022/08/08 06:00:06;;;;;;;6.82;3.13;;;13.70;99.90;;;;;;5054402;28;20155;-83
2022/08/08 06:05:20;;;;;;;3.80;2.95;;;13.90;99.90;;;;;;5054458;28;20052;-83
2022/08/08 06:07:48;;;;;;;8.00;3.75;;;14.00;99.90;;;;;;5054499;28;20056;-84
2022/08/08 06:10:14;;;;;;;5.55;3.58;;;14.20;99.90;;;;;;5054455;28;20404;-83
2022/08/08 06:12:43;;;;;;;9.93;4.45;;;14.30;99.90;;;;;;5041394;28;20139;-83
2022/08/08 06:15:10;;;;;;;12.13;4.30;;;14.30;99.90;;;;;;5058001;28;20044;-84
2022/08/08 06:17:38;;;;;;;10.13;4.45;;;14.50;99.90;;;;;;5041665;28;20056;-83
2022/08/08 06:20:06;;;;;;;6.50;3.90;;;14.60;99.90;;;;;;5058205;28;20060;-85
2022/08/08 06:22:32;;;;;;;11.88;4.00;;;14.80;99.90;;;;;;5075823;28;20049;-83
2022/08/08 06:24:58;;;;;;;6.10;3.78;;;14.90;99.90;;;;;;5075437;28;20055;-85
2022/08/08 06:27:54;;;;;;;7.72;4.30;;;15.00;99.90;;;;;;5075630;28;20059;-82
2022/08/08 06:30:20;;;;;;;9.18;3.75;;;15.20;99.90;;;;;;5057879;28;20113;-85
2022/08/08 06:32:53;;;;;;;7.63;4.10;;;15.40;99.90;;;;;;5057638;28;20088;-83
2022/08/08 06:35:20;;;;;;;8.32;5.28;;;15.60;99.90;;;;;;5057723;28;20106;-83
2022/08/08 06:37:57;;;;;;;7.30;4.30;;;15.70;99.90;;;;;;5041102;28;20056;-83
2022/08/08 06:40:24;;;;;;;8.18;4.13;;;15.80;99.90;;;;;;5047153;28;20061;-85
2022/08/08 06:42:55;;;;;;;10.18;4.15;;;16.00;99.90;;;;;;5053630;28;20049;-86
2022/08/08 06:45:22;;;;;;;7.60;4.25;;;16.20;99.90;;;;;;5053772;28;20079;-83
2022/08/08 06:47:50;;;;;;;7.47;4.30;;;16.20;99.90;;;;;;5055005;28;20131;-84
2022/08/08 06:50:16;;;;;;;9.25;3.65;;;16.30;99.90;;;;;;5038492;28;20160;-84
2022/08/08 06:52:41;;;;;;;7.28;3.58;;;16.50;99.90;;;;;;5073951;28;20092;-83
2022/08/08 06:55:08;;;;;;;7.28;4.10;;;16.60;99.90;;;;;;5055930;28;20060;-85
2022/08/08 06:57:34;;;;;;;8.98;4.10;;;16.70;99.90;;;;;;5050464;28;20088;-85
2022/08/08 07:00:04;;;;;;;7.38;3.75;;;16.80;99.90;;;;;;5052335;28;20059;-84
2022/08/08 07:02:32;;;;;;;5.10;2.90;;;17.00;99.90;;;;;;5038993;28;20149;-86
2022/08/08 07:05:12;;;;;;;7.57;3.10;;;17.00;99.90;;;;;;5045809;28;20055;-84
2022/08/08 07:08:04;;;;;;;10.60;2.63;;;17.20;99.90;;;;;;5063348;28;20056;-86
2022/08/08 07:10:37;;;;;;;9.70;3.13;;;17.30;99.90;;;;;;5062619;28;20098;-85
2022/08/08 07:13:07;;;;;;;9.07;2.45;;;17.40;99.90;;;;;;5062940;28;20044;-84
2022/08/08 07:15:45;;;;;;;8.88;2.85;;;17.50;99.90;;;;;;5043877;28;20343;-85
2022/08/08 07:18:20;;;;;;;9.10;2.05;;;17.70;99.90;;;;;;5044797;28;20048;-85
2022/08/08 07:20:49;;;;;;;6.40;2.40;;;17.80;99.90;;;;;;5062995;28;20063;-86
2022/08/08 07:23:23;;;;;;;9.38;2.60;;;17.90;99.90;;;;;;5042862;28;20067;-86
2022/08/08 07:25:50;;;;;;;7.00;2.20;;;18.10;99.90;;;;;;5063066;28;20048;-84
2022/08/08 07:28:25;;;;;;;5.68;1.77;;;18.30;99.90;;;;;;5061874;28;20055;-86
2022/08/08 07:30:51;;;;;;;6.55;1.75;;;18.60;99.90;;;;;;5029227;28;20139;-85
2022/08/08 07:33:21;;;;;;;7.22;1.70;;;18.80;99.90;;;;;;5044543;28;20135;-86
2022/08/08 07:35:48;;;;;;;;;;;18.90;99.90;;;;;;5044566;28;20048;-85
2022/08/08 07:38:18;;;;;;;9.60;1.65;;;18.90;99.90;;;;;;5061975;28;19928;-84
2022/08/08 07:40:45;;;;;;;5.90;1.40;;;18.90;99.90;;;;;;5042815;28;20052;-87
2022/08/08 07:43:12;;;;;;;6.28;1.55;;;19.00;99.90;;;;;;5044332;28;20056;-84
2022/08/08 07:45:38;;;;;;;7.25;1.70;;;19.10;99.90;;;;;;5043520;28;20045;-86
2022/08/08 07:48:04;;;;;;;8.07;1.30;;;19.30;99.90;;;;;;5062904;28;20434;-86
2022/08/08 07:50:36;;;;;;;7.60;1.67;;;19.50;99.90;;;;;;5044221;28;20143;-86
2022/08/08 07:53:31;;;;;;;4.50;1.38;;;19.70;99.90;;;;;;5059861;28;20059;-87
2022/08/08 07:56:01;;;;;;;5.13;1.23;;;20.50;99.90;;;;;;5054093;28;20053;-84
2022/08/08 07:58:41;;;;;;;9.23;1.60;;;21.40;99.90;;;;;;5058755;28;20056;-87
2022/08/08 08:01:19;;;;;;;12.05;1.70;;;21.50;99.90;;;;;;5071493;28;20080;-85
2022/08/08 08:03:47;;;;;;;6.00;1.45;;;22.00;99.90;;;;;;5044864;28;20061;-83
2022/08/08 08:06:14;;;;;;;4.25;1.30;;;22.70;99.90;;;;;;5025001;28;20064;-88
2022/08/08 08:08:46;;;;;;;7.47;1.20;;;23.40;99.90;;;;;;5041907;28;20061;-87
2022/08/08 08:11:22;;;;;;;5.53;1.30;;;23.80;99.90;;;;;;5060314;28;20087;-87
2022/08/08 08:13:51;;;;;;;7.80;1.45;;;24.40;99.90;;;;;;5043676;28;20145;-89
2022/08/08 08:16:25;;;;;;;6.20;1.45;;;24.90;99.10;;;;;;5043999;28;20191;-84
2022/08/08 08:18:52;;;;;;;6.78;1.20;;;25.40;94.40;;;;;;5043718;28;20203;-84
2022/08/08 08:21:19;;;;;;;5.32;1.27;;;25.60;90.40;;;;;;5062200;28;20482;-85
2022/08/08 08:23:45;;;;;;;3.08;0.90;;;25.90;82.90;;;;;;5061912;28;20059;-83
2022/08/08 08:26:14;;;;;;;9.82;1.55;;;26.30;77.70;;;;;;5060631;28;20045;-85
2022/08/08 08:28:40;;;;;;;5.10;1.08;;;26.60;74.00;;;;;;5058055;28;20114;-83
2022/08/08 08:31:06;;;;;;;3.47;1.00;;;27.00;70.30;;;;;;5061415;28;20139;-88
2022/08/08 08:33:32;;;;;;;3.45;0.75;;;26.60;72.20;;;;;;5060377;28;20052;-87
2022/08/08 08:36:00;;;;;;;5.95;1.10;;;26.00;74.40;;;;;;5057779;28;20060;-83
2022/08/08 08:38:26;;;;;;;7.28;1.25;;;25.30;81.80;;;;;;5043842;28;20056;-84
2022/08/08 08:40:52;;;;;;;3.25;0.90;;;25.40;85.40;;;;;;5040427;28;20045;-83
2022/08/08 08:43:19;;;;;;;5.47;1.15;;;26.30;76.50;;;;;;5061242;28;20045;-83
2022/08/08 08:45:48;;;;;;;5.60;0.98;;;27.30;67.20;;;;;;5062357;28;20055;-88
2022/08/08 08:48:18;;;;;;;3.78;1.30;;;27.30;67.60;;;;;;5041508;28;20067;-85
2022/08/08 08:50:49;;;;;;;4.43;1.00;;;27.40;66.00;;;;;;5043079;28;20052;-85
2022/08/08 08:53:15;;;;;;;7.40;1.45;;;27.00;67.20;;;;;;5043110;28;20179;-84
2022/08/08 08:55:43;;;;;;;9.63;1.35;;;26.90;68.40;;;;;;5041459;28;20117;-86
2022/08/08 08:58:19;;;;;;;4.20;1.15;;;27.60;66.10;;;;;;5060841;28;20132;-86
2022/08/08 09:00:45;;;;;;;5.10;0.98;;;28.70;60.70;;;;;;5058597;28;20099;-83
2022/08/08 09:03:13;;;;;;;4.22;1.00;;;29.30;58.90;;;;;;5040332;28;20056;-84
2022/08/08 09:05:40;;;;;;;5.18;1.30;;;30.00;58.10;;;;;;5056773;28;20554;-86
2022/08/08 09:08:07;;;;;;;4.30;1.10;;;30.50;55.40;;;;;;5036788;28;20573;-86
2022/08/08 09:10:36;;;;;;;4.72;0.88;;;31.20;54.80;;;;;;5033072;28;20061;-85
2022/08/08 09:13:07;;;;;;;3.45;0.90;;;31.90;52.90;;;;;;5055567;28;20040;-84
2022/08/08 09:15:33;;;;;;;5.07;1.17;;;31.80;51.50;;;;;;5058891;28;20056;-85
2022/08/08 09:17:58;;;;;;;4.55;0.95;;;30.40;52.70;;;;;;5041745;28;20088;-84
2022/08/08 09:20:26;;;;;;;5.85;0.90;;;28.80;55.50;;;;;;5073977;28;20103;-86
2022/08/08 09:22:55;;;;;;;3.58;0.90;;;27.40;58.40;;;;;;5059937;28;20128;-87
2022/08/08 09:25:21;;;;;;;4.03;1.07;;;27.10;60.90;;;;;;5060866;28;20048;-87
2022/08/08 09:27:47;;;;;;;5.47;0.90;;;27.90;59.90;;;;;;5057881;28;20109;-85
2022/08/08 09:30:15;;;;;;;5.88;1.10;;;28.60;57.30;;;;;;5050563;28;20489;-87
2022/08/08 09:32:43;;;;;;;2.85;0.90;;;29.40;54.80;;;;;;5050606;28;20048;-84
2022/08/08 09:35:11;;;;;;;4.82;0.90;;;30.20;52.60;;;;;;5033334;28;20072;-87
2022/08/08 09:37:48;;;;;;;2.40;0.88;;;30.40;51.40;;;;;;5040053;28;20064;-85
2022/08/08 09:40:21;;;;;;;3.28;0.63;;;30.20;52.70;;;;;;5047895;28;20052;-84
2022/08/08 09:42:58;;;;;;;4.72;1.20;;;29.50;53.60;;;;;;5049153;28;20068;-85
2022/08/08 09:45:42;;;;;;;4.22;0.95;;;28.90;54.80;;;;;;5049525;28;20057;-85
2022/08/08 09:48:09;;;;;;;4.35;0.88;;;29.70;55.80;;;;;;5052762;28;20061;-81
2022/08/08 09:50:36;;;;;;;2.72;0.93;;;30.90;52.90;;;;;;5055015;28;20088;-85
2022/08/08 09:53:02;;;;;;;4.18;0.80;;;31.90;50.80;;;;;;5054656;28;20060;-86
2022/08/08 09:55:31;;;;;;;3.70;0.70;;;32.90;50.10;;;;;;5053395;28;20072;-84
2022/08/08 09:58:05;;;;;;;1.58;0.60;;;33.60;47.80;;;;;;5055362;28;20052;-85
2022/08/08 10:00:36;;;;;;;3.03;0.60;;;34.20;46.30;;;;;;5056765;28;20171;-86
2022/08/08 10:03:06;;;;;;;1.25;0.50;;;34.80;44.60;;;;;;5037039;28;20637;-85
2022/08/08 10:05:37;;;;;;;1.88;0.70;;;35.20;44.30;;;;;;5036670;28;20061;-87
2022/08/08 10:08:04;;;;;;;1.80;0.60;;;35.60;42.60;;;;;;5030318;28;20190;-83
2022/08/08 10:10:31;;;;;;;1.80;0.70;;;35.90;42.50;;;;;;5056400;28;20547;-82
2022/08/08 10:12:58;;;;;;;1.17;0.50;;;36.00;41.30;;;;;;5070698;28;20493;-82
2022/08/08 10:15:26;;;;;;;3.47;0.60;;;34.90;40.90;;;;;;5052201;28;20401;-85
2022/08/08 10:17:54;;;;;;;1.27;0.70;;;33.50;43.00;;;;;;5074093;28;20068;-83
2022/08/08 10:20:22;;;;;;;4.28;0.60;;;33.70;44.00;;;;;;5074305;28;20056;-88
2022/08/08 10:22:58;;;;;;;5.32;0.90;;;34.00;43.20;;;;;;5074633;28;20416;-86
2022/08/08 10:25:24;;;;;;;2.63;0.73;;;32.80;42.90;;;;;;5055861;28;20057;-84
2022/08/08 10:27:52;;;;;;;3.63;0.85;;;30.90;46.00;;;;;;5056237;28;20155;-85
2022/08/08 10:30:20;;;;;;;2.72;0.82;;;29.30;48.50;;;;;;5055724;28;20048;-86
2022/08/08 10:32:54;;;;;;;3.75;0.63;;;28.80;50.10;;;;;;5056032;28;20062;-86
2022/08/08 10:35:26;;;;;;;5.28;0.90;;;29.50;51.10;;;;;;5056124;28;20626;-83
2022/08/08 10:38:05;;;;;;;4.10;0.80;;;30.80;50.60;;;;;;5073629;28;20087;-82
2022/08/08 10:40:32;;;;;;;3.50;0.70;;;32.20;46.70;;;;;;5074031;28;20060;-84
2022/08/08 10:43:03;;;;;;;4.22;0.52;;;32.90;45.20;;;;;;5069035;28;20059;-85
2022/08/08 10:45:40;;;;;;;3.10;0.70;;;33.70;44.20;;;;;;5053797;28;20052;-83
2022/08/08 10:48:09;;;;;;;2.60;0.70;;;33.60;43.50;;;;;;5068818;28;20412;-85
2022/08/08 10:50:37;;;;;;;3.15;0.63;;;32.60;44.30;;;;;;5073114;28;20056;-83
2022/08/08 10:53:07;;;;;;;2.15;0.60;;;31.80;45.00;;;;;;5073520;28;20357;-85
2022/08/08 10:55:33;;;;;;;;;;;30.40;45.70;;;;;;5078429;28;20068;-82
2022/08/08 10:58:02;;;;;;;2.53;0.60;;;29.00;48.10;;;;;;5080602;28;19971;-84
2022/08/08 11:00:29;;;;;;;3.38;0.85;;;27.80;51.50;;;;;;5056574;28;20095;-83
2022/08/08 11:02:56;;;;;;;4.13;0.82;;;27.00;54.40;;;;;;5056272;28;20079;-85
2022/08/08 11:05:23;;;;;;;3.38;0.70;;;26.30;55.50;;;;;;5056102;28;20656;-84
2022/08/08 11:07:53;;;;;;;3.65;0.82;;;25.70;56.60;;;;;;5074393;28;20048;-82
2022/08/08 11:10:23;;;;;;;2.35;0.77;;;25.30;57.20;;;;;;5074245;28;20053;-83
2022/08/08 11:12:51;;;;;;;;;;;26.40;57.50;;;;;;5055481;28;20064;-84
2022/08/08 11:15:19;;;;;;;2.55;0.70;;;28.70;55.50;;;;;;5054014;28;19974;-83
2022/08/08 11:17:46;;;;;;;3.53;1.10;;;30.60;48.60;;;;;;5035194;28;20421;-85
2022/08/08 11:20:21;;;;;;;1.95;0.60;;;30.50;48.10;;;;;;5054108;28;20055;-84
2022/08/08 11:22:58;;;;;;;3.17;0.70;;;29.50;50.20;;;;;;5054035;28;20128;-84
2022/08/08 11:25:25;;;;;;;2.45;0.75;;;28.50;51.60;;;;;;5053760;28;20403;-83
2022/08/08 11:27:55;;;;;;;1.38;0.60;;;27.50;52.90;;;;;;5053808;28;20076;-84
2022/08/08 11:30:22;;;;;;;1.10;0.68;;;26.80;54.60;;;;;;5053550;28;20096;-86
2022/08/08 11:32:54;;;;;;;2.60;0.80;;;26.20;55.90;;;;;;5033955;28;20486;-85
2022/08/08 11:35:22;;;;;;;3.67;0.63;;;27.00;54.00;;;;;;5053704;28;20144;-82
2022/08/08 11:37:48;;;;;;;1.25;0.50;;;28.70;50.20;;;;;;5053610;28;20061;-84
2022/08/08 11:40:14;;;;;;;6.38;0.80;;;29.50;49.70;;;;;;5052014;28;20517;-83
2022/08/08 11:42:41;;;;;;;2.70;0.63;;;30.60;48.20;;;;;;5043004;28;20058;-81
2022/08/08 11:45:11;;;;;;;6.72;0.60;;;31.90;46.40;;;;;;5032973;28;20136;-84
2022/08/08 11:47:39;;;;;;;1.75;0.50;;;31.40;45.90;;;;;;5026621;28;20048;-81
2022/08/08 11:50:18;;;;;;;2.92;0.90;;;30.20;48.10;;;;;;5035470;28;20064;-85
2022/08/08 11:52:44;;;;;;;4.27;0.67;;;29.00;50.10;;;;;;5053346;28;20453;-85
2022/08/08 11:55:18;;;;;;;4.82;0.68;;;28.20;52.20;;;;;;5035268;28;20060;-85
2022/08/08 11:57:44;;;;;;;4.00;0.60;;;27.80;53.80;;;;;;5053060;28;20147;-85
2022/08/08 12:00:16;;;;;;;2.80;0.57;;;28.20;54.50;;;;;;5053545;28;20052;-84
2022/08/08 12:02:53;;;;;;;4.55;0.70;;;29.40;51.30;;;;;;5017481;28;20064;-86
2022/08/08 12:05:29;;;;;;;2.55;0.50;;;30.10;50.10;;;;;;5053178;28;20049;-85
2022/08/08 12:07:55;;;;;;;9.45;1.35;;;31.00;48.00;;;;;;5052862;28;20084;-84
2022/08/08 12:10:31;;;;;;;3.17;0.90;;;30.70;48.40;;;;;;5034249;28;20599;-84
2022/08/08 12:13:04;;;;;;;1.98;0.52;;;30.40;49.60;;;;;;5052508;28;20140;-84
2022/08/08 12:15:34;;;;;;;2.05;0.60;;;30.10;49.00;;;;;;5053080;28;20106;-84
2022/08/08 12:18:00;;;;;;;3.00;1.00;;;29.40;50.10;;;;;;5050544;28;20092;-85
2022/08/08 12:20:37;;;;;;;1.42;0.63;;;28.80;51.70;;;;;;5034977;28;20130;-83
2022/08/08 12:23:03;;;;;;;5.65;0.80;;;28.40;51.40;;;;;;5018684;28;20401;-84
2022/08/08 12:25:32;;;;;;;1.85;0.60;;;28.00;52.10;;;;;;5033161;28;20049;-83
2022/08/08 12:28:15;;;;;;;2.43;0.63;;;27.60;54.20;;;;;;5031914;28;20057;-84
2022/08/08 12:30:42;;;;;;;2.20;0.60;;;27.30;54.50;;;;;;5013454;28;20151;-86
2022/08/08 12:33:25;;;;;;;2.17;0.70;;;27.10;55.20;;;;;;5013254;28;20136;-85
2022/08/08 12:35:51;;;;;;;1.73;0.70;;;27.00;56.40;;;;;;5032068;28;20049;-84
2022/08/08 12:38:17;;;;;;;2.53;0.63;;;26.90;54.90;;;;;;5030833;28;20414;-84
2022/08/08 12:40:47;;;;;;;1.92;0.60;;;26.50;57.50;;;;;;5023773;28;20068;-87
2022/08/08 12:43:18;;;;;;;3.30;0.88;;;26.40;57.80;;;;;;5046105;28;20071;-86
2022/08/08 12:45:45;;;;;;;3.28;0.80;;;26.40;58.80;;;;;;5051463;28;20053;-86
2022/08/08 12:48:19;;;;;;;1.25;0.63;;;26.20;59.10;;;;;;5033303;28;20137;-85
2022/08/08 12:50:53;;;;;;;2.15;0.90;;;26.20;59.70;;;;;;5017380;28;20068;-85
2022/08/08 12:53:23;;;;;;;3.22;0.70;;;26.20;60.40;;;;;;5051438;28;20505;-86
2022/08/08 12:56:00;;;;;;;1.60;0.60;;;26.20;59.70;;;;;;5016866;28;20045;-82
2022/08/08 12:58:28;;;;;;;1.20;0.50;;;26.30;59.10;;;;;;5033120;28;20496;-85
2022/08/08 13:00:54;;;;;;;2.72;0.80;;;26.30;60.30;;;;;;5051214;28;20491;-85
2022/08/08 13:03:30;;;;;;;2.33;0.70;;;26.40;60.30;;;;;;5051402;28;20100;-85
2022/08/08 13:06:08;;;;;;;2.95;0.80;;;26.40;60.70;;;;;;5032890;28;20136;-86
2022/08/08 13:08:50;;;;;;;5.38;0.88;;;26.30;61.60;;;;;;5033625;28;20060;-85
2022/08/08 13:11:26;;;;;;;3.10;0.65;;;26.50;64.10;;;;;;5050633;28;20049;-83
2022/08/08 13:14:14;;;;;;;3.08;0.80;;;26.80;63.90;;;;;;5017309;28;20091;-83
2022/08/08 13:16:40;;;;;;;2.05;0.70;;;26.90;61.00;;;;;;5017387;28;20049;-84
2022/08/08 13:19:08;;;;;;;1.42;0.50;;;26.50;59.90;;;;;;5051834;28;20057;-84
2022/08/08 13:21:46;;;;;;;5.38;0.85;;;26.10;62.10;;;;;;5050845;28;20128;-83